createdAt,value
2022-07-28T00:01:23.442Z,100.00
2022-07-28T00:03:49.852Z,100.00
2022-07-28T00:06:16.541Z,100.00
2022-07-28T00:08:42.965Z,100.00
2022-07-28T00:11:09.447Z,100.00
2022-07-28T00:13:35.900Z,100.00
2022-07-28T00:16:02.470Z,100.00
2022-07-28T00:18:28.954Z,100.00
2022-07-28T00:20:55.365Z,100.00
2022-07-28T00:23:21.764Z,100.00
2022-07-28T00:25:48.161Z,100.00
2022-07-28T00:28:14.565Z,100.00
2022-07-28T00:30:40.994Z,100.00
2022-07-28T00:33:07.551Z,100.00
2022-07-28T00:35:34.019Z,100.00
2022-07-28T00:38:01.124Z,100.00
2022-07-28T00:40:48.358Z,100.00
2022-07-28T00:43:15.685Z,100.00
2022-07-28T00:45:42.264Z,100.00
2022-07-28T00:48:09.293Z,100.00
2022-07-28T00:50:39.886Z,100.00
2022-07-28T00:53:07.371Z,100.00
2022-07-28T00:56:05.437Z,100.00
2022-07-28T00:58:22.472Z,100.00
2022-07-28T01:00:48.874Z,100.00
2022-07-28T01:03:15.315Z,100.00
2022-07-28T01:06:19.988Z,100.00
2022-07-28T01:09:03.481Z,100.00
2022-07-28T01:11:42.923Z,100.00
2022-07-28T01:14:32.023Z,100.00
2022-07-28T01:17:06.541Z,100.00
2022-07-28T01:19:39.569Z,100.00
2022-07-28T01:22:13.194Z,100.00
2022-07-28T01:24:59.071Z,100.00
2022-07-28T01:27:54.602Z,100.00
2022-07-28T01:30:29.559Z,100.00
2022-07-28T01:33:00.903Z,100.00
2022-07-28T01:35:31.314Z,100.00
2022-07-28T01:38:01.143Z,100.00
2022-07-28T01:40:32.099Z,100.00
2022-07-28T01:43:01.583Z,100.00
2022-07-28T01:45:29.442Z,100.00
2022-07-28T01:47:59.492Z,100.00
2022-07-28T01:50:28.013Z,100.00
2022-07-28T01:52:57.116Z,100.00
2022-07-28T01:55:26.111Z,100.00
2022-07-28T01:57:55.449Z,100.00
2022-07-28T02:00:23.963Z,100.00
2022-07-28T02:02:52.949Z,100.00
2022-07-28T02:05:22.288Z,100.00
2022-07-28T02:07:49.689Z,100.00
2022-07-28T02:10:17.741Z,100.00
2022-07-28T02:12:46.433Z,100.00
2022-07-28T02:15:14.849Z,100.00
2022-07-28T02:17:43.959Z,100.00
2022-07-28T02:20:12.592Z,100.00
2022-07-28T02:22:41.466Z,100.00
2022-07-28T02:25:08.553Z,100.00
2022-07-28T02:27:42.433Z,100.00
2022-07-28T02:30:16.447Z,100.00
2022-07-28T02:32:51.596Z,100.00
2022-07-28T02:35:29.096Z,100.00
2022-07-28T02:38:14.008Z,100.00
2022-07-28T02:40:42.851Z,100.00
2022-07-28T02:43:15.326Z,100.00
2022-07-28T02:45:47.273Z,100.00
2022-07-28T02:48:17.291Z,100.00
2022-07-28T02:50:46.129Z,100.00
2022-07-28T02:53:16.363Z,100.00
2022-07-28T02:55:46.968Z,100.00
2022-07-28T02:58:15.555Z,100.00
2022-07-28T03:00:43.037Z,100.00
2022-07-28T03:03:11.355Z,100.00
2022-07-28T03:05:40.444Z,100.00
2022-07-28T03:08:07.432Z,100.00
2022-07-28T03:10:34.880Z,100.00
2022-07-28T03:13:03.063Z,100.00
2022-07-28T03:15:29.548Z,100.00
2022-07-28T03:17:55.980Z,100.00
2022-07-28T03:20:22.393Z,100.00
2022-07-28T03:22:48.820Z,100.00
2022-07-28T03:25:44.503Z,100.00
2022-07-28T03:28:17.750Z,100.00
2022-07-28T03:30:50.346Z,100.00
2022-07-28T03:33:16.874Z,100.00
2022-07-28T03:35:48.045Z,100.00
2022-07-28T03:38:18.507Z,100.00
2022-07-28T03:40:46.560Z,100.00
2022-07-28T03:43:16.441Z,100.00
2022-07-28T03:45:46.633Z,100.00
2022-07-28T03:48:14.263Z,100.00
2022-07-28T03:50:40.717Z,100.00
2022-07-28T03:53:15.353Z,100.00
2022-07-28T03:55:41.781Z,100.00
2022-07-28T03:58:08.184Z,100.00
2022-07-28T04:00:34.604Z,100.00
2022-07-28T04:03:00.995Z,100.00
2022-07-28T04:05:27.487Z,100.00
2022-07-28T04:07:53.889Z,100.00
2022-07-28T04:10:20.291Z,100.00
2022-07-28T04:12:54.990Z,100.00
2022-07-28T04:15:23.157Z,100.00
2022-07-28T04:17:51.219Z,100.00
2022-07-28T04:20:19.248Z,100.00
2022-07-28T04:22:46.633Z,100.00
2022-07-28T04:25:13.949Z,100.00
2022-07-28T04:27:43.630Z,100.00
2022-07-28T04:30:17.229Z,100.00
2022-07-28T04:32:50.949Z,100.00
2022-07-28T04:35:18.486Z,100.00
2022-07-28T04:37:46.966Z,100.00
2022-07-28T04:40:14.107Z,100.00
2022-07-28T04:42:41.665Z,100.00
2022-07-28T04:45:09.628Z,100.00
2022-07-28T04:47:36.986Z,100.00
2022-07-28T04:50:04.622Z,100.00
2022-07-28T04:52:31.156Z,100.00
2022-07-28T04:54:57.554Z,100.00
2022-07-28T04:57:24.540Z,100.00
2022-07-28T04:59:54.284Z,100.00
2022-07-28T05:02:23.319Z,100.00
2022-07-28T05:04:49.885Z,100.00
2022-07-28T05:07:16.316Z,100.00
2022-07-28T05:09:42.891Z,100.00
2022-07-28T05:12:09.298Z,100.00
2022-07-28T05:14:35.917Z,100.00
2022-07-28T05:17:02.385Z,100.00
2022-07-28T05:19:29.025Z,100.00
2022-07-28T05:21:55.439Z,100.00
2022-07-28T05:24:21.848Z,100.00
2022-07-28T05:26:49.276Z,100.00
2022-07-28T05:29:15.684Z,100.00
2022-07-28T05:31:42.133Z,100.00
2022-07-28T05:34:08.560Z,100.00
2022-07-28T05:36:35.978Z,100.00
2022-07-28T05:39:02.953Z,100.00
2022-07-28T05:41:29.361Z,100.00
2022-07-28T05:43:55.782Z,100.00
2022-07-28T05:46:22.259Z,100.00
2022-07-28T05:48:49.236Z,100.00
2022-07-28T05:51:15.686Z,100.00
2022-07-28T05:53:42.084Z,100.00
2022-07-28T05:56:08.488Z,100.00
2022-07-28T05:58:34.994Z,100.00
2022-07-28T06:01:02.315Z,100.00
2022-07-28T06:03:32.053Z,100.00
2022-07-28T06:06:14.434Z,100.00
2022-07-28T06:08:42.981Z,100.00
2022-07-28T06:11:09.822Z,100.00
2022-07-28T06:13:36.811Z,100.00
2022-07-28T06:16:07.406Z,100.00
2022-07-28T06:18:37.535Z,100.00
2022-07-28T06:21:04.014Z,100.00
2022-07-28T06:23:30.472Z,100.00
2022-07-28T06:25:56.862Z,100.00
2022-07-28T06:28:23.320Z,100.00
2022-07-28T06:30:50.038Z,100.00
2022-07-28T06:33:17.721Z,100.00
2022-07-28T06:35:48.268Z,100.00
2022-07-28T06:38:18.012Z,100.00
2022-07-28T06:40:46.159Z,100.00
2022-07-28T06:43:14.447Z,100.00
2022-07-28T06:45:40.934Z,100.00
2022-07-28T06:48:10.359Z,100.00
2022-07-28T06:50:39.334Z,100.00
2022-07-28T06:53:06.187Z,100.00
2022-07-28T06:55:35.262Z,100.00
2022-07-28T06:58:02.585Z,100.00
2022-07-28T07:00:29.293Z,100.00
2022-07-28T07:02:55.755Z,100.00
2022-07-28T07:05:22.148Z,100.00
2022-07-28T07:07:48.572Z,100.00
2022-07-28T07:10:15.020Z,100.00
2022-07-28T07:12:41.419Z,100.00
2022-07-28T07:15:08.585Z,100.00
2022-07-28T07:17:37.365Z,100.00
2022-07-28T07:20:06.055Z,96.81
2022-07-28T07:22:32.507Z,99.69
2022-07-28T07:25:14.061Z,97.04
2022-07-28T07:27:40.897Z,94.19
2022-07-28T07:30:08.804Z,94.25
2022-07-28T07:32:35.573Z,89.94
2022-07-28T07:35:02.068Z,86.88
2022-07-28T07:37:28.616Z,86.09
2022-07-28T07:39:55.033Z,82.94
2022-07-28T07:42:21.436Z,86.05
2022-07-28T07:44:51.262Z,79.79
2022-07-28T07:47:18.291Z,83.90
2022-07-28T07:49:46.008Z,80.28
2022-07-28T07:52:13.126Z,79.98
2022-07-28T07:54:39.513Z,76.83
2022-07-28T07:57:05.941Z,73.35
2022-07-28T07:59:32.333Z,71.07
2022-07-28T08:01:58.806Z,73.43
2022-07-28T08:04:25.560Z,74.40
2022-07-28T08:06:53.029Z,73.97
2022-07-28T08:09:19.593Z,72.29
2022-07-28T08:11:46.034Z,70.75
2022-07-28T08:14:13.039Z,70.75
2022-07-28T08:16:39.758Z,69.20
2022-07-28T08:19:06.232Z,68.22
2022-07-28T08:21:32.635Z,66.77
2022-07-28T08:23:59.557Z,62.35
2022-07-28T08:26:25.961Z,61.06
2022-07-28T08:28:52.492Z,61.83
2022-07-28T08:31:21.919Z,60.77
2022-07-28T08:33:53.696Z,63.42
2022-07-28T08:36:22.389Z,61.30
2022-07-28T08:38:48.781Z,59.24
2022-07-28T08:41:33.399Z,60.71
2022-07-28T08:44:03.807Z,61.75
2022-07-28T08:46:38.346Z,58.19
2022-07-28T08:49:09.407Z,59.21
2022-07-28T08:51:37.796Z,57.19
2022-07-28T08:54:05.968Z,61.55
2022-07-28T08:56:32.963Z,61.32
2022-07-28T08:58:59.837Z,58.39
2022-07-28T09:01:26.511Z,57.00
2022-07-28T09:04:07.307Z,57.04
2022-07-28T09:06:34.161Z,57.75
2022-07-28T09:09:00.658Z,56.13
2022-07-28T09:11:28.537Z,58.67
2022-07-28T09:13:54.961Z,55.32
2022-07-28T09:16:21.474Z,55.47
2022-07-28T09:18:47.948Z,55.88
2022-07-28T09:21:15.450Z,55.80
2022-07-28T09:23:44.520Z,54.82
2022-07-28T09:26:12.763Z,55.21
2022-07-28T09:28:52.751Z,54.08
2022-07-28T09:31:20.734Z,53.75
2022-07-28T09:34:11.322Z,54.25
2022-07-28T09:36:40.276Z,53.73
2022-07-28T09:39:07.420Z,57.47
2022-07-28T09:41:55.392Z,53.79
2022-07-28T09:44:23.941Z,54.72
2022-07-28T09:46:51.316Z,52.66
2022-07-28T09:49:18.097Z,52.93
2022-07-28T09:52:00.407Z,53.83
2022-07-28T09:54:27.184Z,52.81
2022-07-28T09:56:53.846Z,55.21
2022-07-28T09:59:22.972Z,54.16
2022-07-28T10:01:59.743Z,54.62
2022-07-28T10:04:38.814Z,54.10
2022-07-28T10:07:09.709Z,54.37
2022-07-28T10:09:38.223Z,57.67
2022-07-28T10:12:18.562Z,53.09
2022-07-28T10:14:46.486Z,52.81
2022-07-28T10:17:32.183Z,52.58
2022-07-28T10:20:00.788Z,52.32
2022-07-28T10:22:33.761Z,53.47
2022-07-28T10:25:09.854Z,52.21
2022-07-28T10:27:40.296Z,50.42
2022-07-28T10:30:07.193Z,48.60
2022-07-28T10:32:41.667Z,50.06
2022-07-28T10:35:14.148Z,49.51
2022-07-28T10:38:09.495Z,48.65
2022-07-28T10:40:50.574Z,47.79
2022-07-28T10:43:16.997Z,49.41
2022-07-28T10:46:04.521Z,49.38
2022-07-28T10:48:30.745Z,47.68
2022-07-28T10:50:59.492Z,48.26
2022-07-28T10:53:52.078Z,49.29
2022-07-28T10:56:38.809Z,50.70
2022-07-28T10:59:29.367Z,49.66
2022-07-28T11:01:55.839Z,50.07
2022-07-28T11:04:41.062Z,47.98
2022-07-28T11:07:11.932Z,49.04
2022-07-28T11:09:38.433Z,49.06
2022-07-28T11:12:05.362Z,48.79
2022-07-28T11:14:39.046Z,49.02
2022-07-28T11:17:10.695Z,46.51
2022-07-28T11:20:07.171Z,47.06
2022-07-28T11:22:31.947Z,46.89
2022-07-28T11:25:18.079Z,47.90
2022-07-28T11:28:06.844Z,47.06
2022-07-28T11:30:42.117Z,44.71
2022-07-28T11:33:11.211Z,49.22
2022-07-28T11:35:40.898Z,48.58
2022-07-28T11:38:09.411Z,49.78
2022-07-28T11:40:40.859Z,50.22
2022-07-28T11:43:36.154Z,51.91
2022-07-28T11:46:04.620Z,52.72
2022-07-28T11:48:32.912Z,49.64
2022-07-28T11:51:02.467Z,48.47
2022-07-28T11:53:45.005Z,53.21
2022-07-28T11:56:16.108Z,55.85
2022-07-28T11:58:43.373Z,52.10
2022-07-28T12:01:18.171Z,50.90
2022-07-28T12:03:55.023Z,50.61
2022-07-28T12:06:28.644Z,51.79
2022-07-28T12:09:06.306Z,45.99
2022-07-28T12:11:34.677Z,45.23
2022-07-28T12:14:01.989Z,48.77
2022-07-28T12:16:29.701Z,47.74
2022-07-28T12:18:56.707Z,50.04
2022-07-28T12:21:47.963Z,49.17
2022-07-28T12:24:19.111Z,52.14
2022-07-28T12:26:49.662Z,51.84
2022-07-28T12:29:19.877Z,50.16
2022-07-28T12:31:59.266Z,48.45
2022-07-28T12:34:29.349Z,48.00
2022-07-28T12:36:58.031Z,48.75
2022-07-28T12:39:25.762Z,50.81
2022-07-28T12:42:04.034Z,49.79
2022-07-28T12:44:37.782Z,48.32
2022-07-28T12:47:07.640Z,48.55
2022-07-28T12:49:35.576Z,51.51
2022-07-28T12:52:22.259Z,50.28
2022-07-28T12:54:55.835Z,49.87
2022-07-28T12:57:49.776Z,50.06
2022-07-28T13:00:28.176Z,51.94
2022-07-28T13:02:57.275Z,52.55
2022-07-28T13:05:55.229Z,52.23
2022-07-28T13:08:23.948Z,53.85
2022-07-28T13:10:56.739Z,55.37
2022-07-28T13:13:24.189Z,56.25
2022-07-28T13:16:14.380Z,52.36
2022-07-28T13:18:55.700Z,52.24
2022-07-28T13:21:57.198Z,53.20
2022-07-28T13:24:25.348Z,50.86
2022-07-28T13:26:51.949Z,52.15
2022-07-28T13:29:18.343Z,50.54
2022-07-28T13:31:44.801Z,48.95
2022-07-28T13:34:11.585Z,48.72
2022-07-28T13:36:38.286Z,49.38
2022-07-28T13:39:05.664Z,49.06
2022-07-28T13:41:57.114Z,51.92
2022-07-28T13:44:21.084Z,51.25
2022-07-28T13:46:50.181Z,51.04
2022-07-28T13:49:16.803Z,50.17
2022-07-28T13:51:43.283Z,50.75
2022-07-28T13:54:09.697Z,49.64
2022-07-28T13:56:37.232Z,53.00
2022-07-28T13:59:03.677Z,52.50
2022-07-28T14:01:33.781Z,53.32
2022-07-28T14:04:02.121Z,52.09
2022-07-28T14:06:28.710Z,51.51
2022-07-28T14:08:55.913Z,51.63
2022-07-28T14:11:23.089Z,51.32
2022-07-28T14:13:52.118Z,50.78
2022-07-28T14:16:19.833Z,48.90
2022-07-28T14:18:47.550Z,48.01
2022-07-28T14:21:14.610Z,50.28
2022-07-28T14:23:41.188Z,52.49
2022-07-28T14:26:34.470Z,52.10
2022-07-28T14:28:55.508Z,53.19
2022-07-28T14:31:22.373Z,51.59
2022-07-28T14:33:54.244Z,51.66
2022-07-28T14:36:21.814Z,52.30
2022-07-28T14:38:55.447Z,50.62
2022-07-28T14:41:22.485Z,51.94
2022-07-28T14:43:48.923Z,49.05
2022-07-28T14:46:21.069Z,51.07
2022-07-28T14:48:48.496Z,52.68
2022-07-28T14:51:14.971Z,53.67
2022-07-28T14:53:43.258Z,54.13
2022-07-28T14:56:14.970Z,52.58
2022-07-28T14:58:42.117Z,53.80
2022-07-28T15:01:08.531Z,54.75
2022-07-28T15:03:36.523Z,54.60
2022-07-28T15:06:03.428Z,53.56
2022-07-28T15:08:29.850Z,54.04
2022-07-28T15:10:56.266Z,54.25
2022-07-28T15:13:23.327Z,54.46
2022-07-28T15:15:49.812Z,53.90
2022-07-28T15:18:16.252Z,53.68
2022-07-28T15:20:45.501Z,52.49
2022-07-28T15:23:12.004Z,52.86
2022-07-28T15:25:38.720Z,53.38
2022-07-28T15:28:05.251Z,53.33
2022-07-28T15:30:31.751Z,53.50
2022-07-28T15:33:01.703Z,52.99
2022-07-28T15:35:29.240Z,51.97
2022-07-28T15:38:16.028Z,51.68
2022-07-28T15:40:42.459Z,53.05
2022-07-28T15:43:15.645Z,53.18
2022-07-28T15:45:42.089Z,52.15
2022-07-28T15:48:08.693Z,52.17
2022-07-28T15:50:35.081Z,52.99
2022-07-28T15:53:01.737Z,51.76
2022-07-28T15:55:28.153Z,52.26
2022-07-28T15:57:55.676Z,52.25
2022-07-28T16:00:22.142Z,53.99
2022-07-28T16:02:48.582Z,53.26
2022-07-28T16:05:15.857Z,51.57
2022-07-28T16:07:45.102Z,50.92
2022-07-28T16:10:11.761Z,52.10
2022-07-28T16:12:38.233Z,52.79
2022-07-28T16:15:04.868Z,52.10
2022-07-28T16:17:31.258Z,51.75
2022-07-28T16:20:02.611Z,52.69
2022-07-28T16:22:29.237Z,51.61
2022-07-28T16:24:55.641Z,50.95
2022-07-28T16:27:22.045Z,52.03
2022-07-28T16:29:49.477Z,52.66
2022-07-28T16:32:17.131Z,52.26
2022-07-28T16:34:43.529Z,54.04
2022-07-28T16:37:09.951Z,52.44
2022-07-28T16:39:36.373Z,53.87
2022-07-28T16:42:03.240Z,54.23
2022-07-28T16:44:29.957Z,55.31
2022-07-28T16:46:56.590Z,54.16
2022-07-28T16:49:23.903Z,54.06
2022-07-28T16:51:51.310Z,54.02
2022-07-28T16:54:18.220Z,54.49
2022-07-28T16:56:45.741Z,55.47
2022-07-28T16:59:12.210Z,53.35
2022-07-28T17:01:43.526Z,55.02
2022-07-28T17:04:12.693Z,54.25
2022-07-28T17:06:39.621Z,54.04
2022-07-28T17:09:06.037Z,53.78
2022-07-28T17:11:32.453Z,53.70
2022-07-28T17:13:58.919Z,53.44
2022-07-28T17:16:25.409Z,53.29
2022-07-28T17:18:51.903Z,52.76
2022-07-28T17:21:18.309Z,53.14
2022-07-28T17:23:44.706Z,53.47
2022-07-28T17:28:58.564Z,53.83
2022-07-28T17:31:25.589Z,53.59
2022-07-28T17:33:52.265Z,52.72
2022-07-28T17:36:18.988Z,52.83
2022-07-28T17:38:45.392Z,52.75
2022-07-28T17:41:11.889Z,53.18
2022-07-28T17:43:43.657Z,53.45
2022-07-28T17:46:11.960Z,54.39
2022-07-28T17:48:39.818Z,53.71
2022-07-28T17:51:06.391Z,54.04
2022-07-28T17:53:33.655Z,54.16
2022-07-28T17:56:06.012Z,54.19
2022-07-28T17:58:35.393Z,54.85
2022-07-28T18:01:09.686Z,54.66
2022-07-28T18:03:58.443Z,54.66
2022-07-28T18:06:32.414Z,55.88
2022-07-28T18:09:05.421Z,57.40
2022-07-28T18:11:34.754Z,55.36
2022-07-28T18:14:04.443Z,56.49
2022-07-28T18:16:32.137Z,55.11
2022-07-28T18:18:58.581Z,56.12
2022-07-28T18:21:26.475Z,56.05
2022-07-28T18:23:52.942Z,55.95
2022-07-28T18:26:21.805Z,55.99
2022-07-28T18:28:48.263Z,55.92
2022-07-28T18:31:14.752Z,56.04
2022-07-28T18:33:41.197Z,56.32
2022-07-28T18:36:07.734Z,55.93
2022-07-28T18:38:34.129Z,56.20
2022-07-28T18:41:00.941Z,55.75
2022-07-28T18:43:27.678Z,56.39
2022-07-28T18:45:54.139Z,56.65
2022-07-28T18:48:20.778Z,56.46
2022-07-28T18:50:47.180Z,56.90
2022-07-28T18:53:13.737Z,57.21
2022-07-28T18:55:40.236Z,58.09
2022-07-28T18:58:06.698Z,57.62
2022-07-28T19:00:33.709Z,57.77
2022-07-28T19:03:01.439Z,58.44
2022-07-28T19:05:28.016Z,58.58
2022-07-28T19:08:03.741Z,58.48
2022-07-28T19:10:30.137Z,58.69
2022-07-28T19:12:56.553Z,58.60
2022-07-28T19:15:22.996Z,58.73
2022-07-28T19:18:10.385Z,59.25
2022-07-28T19:20:36.091Z,59.21
2022-07-28T19:23:05.278Z,59.37
2022-07-28T19:25:32.271Z,59.58
2022-07-28T19:27:58.736Z,59.99
2022-07-28T19:30:25.185Z,60.21
2022-07-28T19:32:51.581Z,60.26
2022-07-28T19:35:18.038Z,60.21
2022-07-28T19:37:44.767Z,60.78
2022-07-28T19:40:11.828Z,60.75
2022-07-28T19:42:38.220Z,61.36
2022-07-28T19:45:05.968Z,61.49
2022-07-28T19:47:32.381Z,61.68
2022-07-28T19:50:04.892Z,62.09
2022-07-28T19:52:31.340Z,62.31
2022-07-28T19:54:57.778Z,62.88
2022-07-28T19:57:24.824Z,63.45
2022-07-28T19:59:51.253Z,63.50
2022-07-28T20:02:17.817Z,63.84
2022-07-28T20:04:44.398Z,64.24
2022-07-28T20:07:10.808Z,65.08
2022-07-28T20:09:37.421Z,65.33
2022-07-28T20:12:04.121Z,65.97
2022-07-28T20:14:34.247Z,65.86
2022-07-28T20:17:00.737Z,66.03
2022-07-28T20:19:27.194Z,66.79
2022-07-28T20:21:53.585Z,66.53
2022-07-28T20:24:20.041Z,66.88
2022-07-28T20:26:46.454Z,67.14
2022-07-28T20:29:12.937Z,66.94
2022-07-28T20:31:39.433Z,67.15
2022-07-28T20:34:06.834Z,68.33
2022-07-28T20:36:36.309Z,69.53
2022-07-28T20:39:15.744Z,71.27
2022-07-28T20:41:49.152Z,69.91
2022-07-28T20:44:31.183Z,69.38
2022-07-28T20:47:02.160Z,70.14
2022-07-28T20:49:29.442Z,70.19
2022-07-28T20:51:57.790Z,71.54
2022-07-28T20:54:25.735Z,72.63
2022-07-28T20:56:52.161Z,73.11
2022-07-28T20:59:18.609Z,73.94
2022-07-28T21:01:45.104Z,73.35
2022-07-28T21:04:12.933Z,74.56
2022-07-28T21:06:39.952Z,74.27
2022-07-28T21:09:18.085Z,74.44
2022-07-28T21:11:44.483Z,74.09
2022-07-28T21:14:10.913Z,74.14
2022-07-28T21:16:37.379Z,74.64
2022-07-28T21:19:04.432Z,74.28
2022-07-28T21:21:30.857Z,76.20
2022-07-28T21:23:57.296Z,75.81
2022-07-28T21:26:23.680Z,75.14
2022-07-28T21:29:08.930Z,75.70
2022-07-28T21:31:35.378Z,77.11
2022-07-28T21:34:21.758Z,76.99
2022-07-28T21:36:48.153Z,77.52
2022-07-28T21:39:14.584Z,77.68
2022-07-28T21:41:41.120Z,79.43
2022-07-28T21:44:07.569Z,78.21
2022-07-28T21:46:33.975Z,78.44
2022-07-28T21:49:00.470Z,80.68
2022-07-28T21:51:27.854Z,79.36
2022-07-28T21:53:54.399Z,80.46
2022-07-28T21:56:20.833Z,81.33
2022-07-28T21:58:47.529Z,81.52
2022-07-28T22:01:14.705Z,83.08
2022-07-28T22:03:43.289Z,81.82
2022-07-28T22:06:09.685Z,82.29
2022-07-28T22:08:36.458Z,83.21
2022-07-28T22:11:07.262Z,82.19
2022-07-28T22:13:33.667Z,85.09
2022-07-28T22:16:00.406Z,84.38
2022-07-28T22:18:26.844Z,85.18
2022-07-28T22:27:00.460Z,86.39
2022-07-28T22:29:27.852Z,86.19
2022-07-28T22:31:59.578Z,85.74
2022-07-28T22:34:26.296Z,85.10
2022-07-28T22:36:52.728Z,87.66
2022-07-28T22:39:19.355Z,86.56
2022-07-28T22:41:47.037Z,86.16
2022-07-28T22:44:13.740Z,85.82
2022-07-28T22:46:40.760Z,87.13
2022-07-28T22:49:07.275Z,86.22
2022-07-28T22:51:34.750Z,85.77
2022-07-28T22:54:01.303Z,87.50
2022-07-28T22:56:27.711Z,87.44
2022-07-28T22:59:01.492Z,87.82
2022-07-28T23:01:27.976Z,89.29
2022-07-28T23:03:54.950Z,89.44
2022-07-28T23:06:21.389Z,88.29
2022-07-28T23:08:47.950Z,89.49
2022-07-28T23:11:14.351Z,90.79
2022-07-28T23:13:40.927Z,88.94
2022-07-28T23:16:08.986Z,88.96
2022-07-28T23:18:35.426Z,90.96
2022-07-28T23:21:01.844Z,90.29
2022-07-28T23:23:28.275Z,92.05
2022-07-28T23:25:54.726Z,91.81
2022-07-28T23:28:21.170Z,90.96
2022-07-28T23:30:48.197Z,92.68
2022-07-28T23:33:56.665Z,92.54
2022-07-28T23:36:06.132Z,93.34
2022-07-28T23:38:32.525Z,92.60
2022-07-28T23:40:59.098Z,93.94
2022-07-28T23:43:25.542Z,94.23
2022-07-28T23:45:51.974Z,94.57
2022-07-28T23:48:18.373Z,95.68
2022-07-28T23:50:44.776Z,96.29
2022-07-28T23:53:11.283Z,96.64
2022-07-28T23:55:37.798Z,97.93
2022-07-28T23:58:04.355Z,97.97
